Time;durP1;ratioP1;P1;durP2;ratioP2;P2;SDS_P1;SDS_P2;PMS_P1;PMS_P2;Temp;Humidity;BMP_temperature;BMP_pressure;BME280_temperature;BME280_humidity;BME280_pressure;Samples;Min_cycle;Max_cycle;Signal;HPM_P1;HPM_P2
2022/08/20 00:02:03;;;;;;;7.20;4.93;;;22.00;79.40;;;;;;4971892;28;20038;-68
2022/08/20 00:04:29;;;;;;;7.22;5.35;;;22.00;79.00;;;;;;5025692;28;20095;-68
2022/08/20 00:06:55;;;;;;;6.03;4.90;;;22.00;78.70;;;;;;5032676;28;20029;-68
2022/08/20 00:09:21;;;;;;;6.03;5.05;;;22.00;78.40;;;;;;5032619;28;20103;-68
2022/08/20 00:11:46;;;;;;;7.32;5.28;;;22.00;78.30;;;;;;5032545;28;20471;-68
2022/08/20 00:14:12;;;;;;;7.45;5.97;;;22.00;78.30;;;;;;5032601;28;20079;-69
2022/08/20 00:16:39;;;;;;;11.07;5.25;;;22.00;78.40;;;;;;5032595;28;20026;-69
2022/08/20 00:19:07;;;;;;;7.70;5.55;;;22.00;78.60;;;;;;5032714;28;20022;-68
2022/08/20 00:21:35;;;;;;;6.93;4.72;;;22.10;78.70;;;;;;5030491;28;20100;-68
2022/08/20 00:24:01;;;;;;;9.43;5.70;;;22.10;78.80;;;;;;5031057;28;20052;-68
2022/08/20 00:26:27;;;;;;;7.45;4.90;;;22.10;78.40;;;;;;5034241;28;20499;-68
2022/08/20 00:28:53;;;;;;;7.28;4.75;;;22.10;78.10;;;;;;5034132;28;20041;-68
2022/08/20 00:31:22;;;;;;;5.60;4.75;;;22.20;78.20;;;;;;5034139;28;20033;-68
2022/08/20 00:33:48;;;;;;;7.57;4.55;;;22.20;78.10;;;;;;5038626;28;20025;-68
2022/08/20 00:36:16;;;;;;;6.13;4.68;;;22.20;77.90;;;;;;5035390;28;20055;-68
2022/08/20 00:38:43;;;;;;;6.00;4.65;;;22.20;77.70;;;;;;5035156;28;20045;-68
2022/08/20 00:41:13;;;;;;;6.88;3.88;;;22.20;77.20;;;;;;5017312;28;20053;-68
2022/08/20 00:43:42;;;;;;;7.72;4.57;;;22.20;77.00;;;;;;5035126;28;20028;-68
2022/08/20 00:46:28;;;;;;;5.97;4.20;;;22.20;76.70;;;;;;5035226;28;20052;-68
2022/08/20 00:48:56;;;;;;;5.97;3.78;;;22.20;76.80;;;;;;5035334;28;20493;-68
2022/08/20 00:51:41;;;;;;;6.63;4.50;;;22.20;76.80;;;;;;5034849;28;20017;-68
2022/08/20 00:54:28;;;;;;;6.03;4.10;;;22.20;76.40;;;;;;5016989;28;20021;-68
2022/08/20 00:57:04;;;;;;;4.72;4.22;;;22.20;76.20;;;;;;5034147;28;20018;-68
2022/08/20 00:59:32;;;;;;;7.97;4.35;;;22.20;76.20;;;;;;5017054;28;20351;-68
2022/08/20 01:02:00;;;;;;;5.25;3.83;;;22.20;76.30;;;;;;5034623;28;20076;-68
2022/08/20 01:04:30;;;;;;;6.15;3.85;;;22.10;76.40;;;;;;5035029;28;20021;-68
2022/08/20 01:06:56;;;;;;;7.57;4.00;;;22.10;76.40;;;;;;5035521;28;20029;-68
2022/08/20 01:09:23;;;;;;;8.68;3.90;;;22.10;76.60;;;;;;5016526;28;20029;-68
2022/08/20 01:11:49;;;;;;;4.85;3.30;;;22.10;76.90;;;;;;5034152;28;20017;-68
2022/08/20 01:16:54;;;;;;;4.45;3.15;;;22.10;77.10;;;;;;5034047;28;20053;-68
2022/08/20 01:19:27;;;;;;;12.10;4.72;;;22.20;77.20;;;;;;5034203;28;20020;-68
2022/08/20 01:21:53;;;;;;;3.50;3.20;;;22.10;77.10;;;;;;5034755;28;20046;-68
2022/08/20 01:24:29;;;;;;;3.75;3.00;;;22.20;77.20;;;;;;5034156;28;20056;-68
2022/08/20 01:26:55;;;;;;;5.18;2.90;;;22.20;77.20;;;;;;5016734;28;20382;-69
2022/08/20 01:29:28;;;;;;;4.53;3.17;;;22.20;77.20;;;;;;5034549;28;20467;-68
2022/08/20 01:32:00;;;;;;;8.00;3.38;;;22.20;77.30;;;;;;5030711;28;20040;-68
2022/08/20 01:34:26;;;;;;;7.60;2.58;;;22.30;77.30;;;;;;5033491;28;20498;-68
2022/08/20 01:36:54;;;;;;;5.40;3.80;;;22.30;77.40;;;;;;5034432;28;20030;-68
2022/08/20 01:39:27;;;;;;;18.85;3.67;;;22.30;76.90;;;;;;5033012;28;20360;-69
2022/08/20 01:42:16;;;;;;;6.72;3.35;;;22.30;76.80;;;;;;5034460;28;20104;-68
2022/08/20 01:44:45;;;;;;;7.95;2.80;;;22.40;77.00;;;;;;5034445;28;20033;-68
2022/08/20 01:47:20;;;;;;;3.85;2.60;;;22.40;77.10;;;;;;5034311;28;20026;-68
2022/08/20 01:49:51;;;;;;;4.25;3.00;;;22.40;77.10;;;;;;5036154;28;20120;-68
2022/08/20 01:52:23;;;;;;;5.97;3.53;;;22.40;77.00;;;;;;5036590;28;20037;-68
2022/08/20 01:54:48;;;;;;;6.97;3.00;;;22.40;76.70;;;;;;5034200;28;20493;-68
2022/08/20 01:57:19;;;;;;;5.00;3.25;;;22.50;76.80;;;;;;5034366;28;20030;-68
2022/08/20 01:59:48;;;;;;;3.13;2.78;;;22.50;76.60;;;;;;5040890;28;20030;-68
2022/08/20 02:02:14;;;;;;;5.68;3.28;;;22.50;76.40;;;;;;5033833;28;20029;-68
2022/08/20 02:04:41;;;;;;;3.63;3.33;;;22.50;76.30;;;;;;5033905;28;20026;-68
2022/08/20 02:07:12;;;;;;;3.20;2.88;;;22.50;76.20;;;;;;5032551;28;20029;-68
2022/08/20 02:09:39;;;;;;;7.80;3.22;;;22.50;76.40;;;;;;5014040;28;20034;-68
2022/08/20 02:12:08;;;;;;;6.57;3.00;;;22.50;76.40;;;;;;5020353;28;20060;-68
2022/08/20 02:14:35;;;;;;;5.03;3.08;;;22.50;76.10;;;;;;5032585;28;20017;-68
2022/08/20 02:17:01;;;;;;;3.90;2.85;;;22.60;76.20;;;;;;5033146;28;20426;-69
2022/08/20 02:19:47;;;;;;;2.95;2.65;;;22.60;76.10;;;;;;5034158;28;20025;-68
2022/08/20 02:22:28;;;;;;;3.55;2.53;;;22.60;76.00;;;;;;5015494;28;20049;-68
2022/08/20 02:24:54;;;;;;;3.30;2.65;;;22.60;75.80;;;;;;5015691;28;20065;-68
2022/08/20 02:27:22;;;;;;;5.70;3.20;;;22.60;76.50;;;;;;5033336;28;20060;-68
2022/08/20 02:29:50;;;;;;;3.53;2.50;;;22.60;75.80;;;;;;5033386;28;20099;-69
2022/08/20 02:32:16;;;;;;;5.13;2.05;;;22.60;76.00;;;;;;5034093;28;20483;-68
2022/08/20 02:34:42;;;;;;;5.57;2.45;;;22.60;75.80;;;;;;5033187;28;20113;-68
2022/08/20 02:37:09;;;;;;;3.63;2.10;;;22.60;75.70;;;;;;5033369;28;20056;-68
2022/08/20 02:39:35;;;;;;;5.03;2.10;;;22.60;75.60;;;;;;5033239;28;20032;-68
2022/08/20 02:42:04;;;;;;;2.30;1.85;;;22.60;75.50;;;;;;5031921;28;20021;-68
2022/08/20 02:44:30;;;;;;;2.47;1.60;;;22.60;75.40;;;;;;5032334;28;20379;-68
2022/08/20 02:46:56;;;;;;;2.05;1.88;;;22.60;75.60;;;;;;5034673;28;20387;-68
2022/08/20 02:49:21;;;;;;;2.15;1.63;;;22.60;75.50;;;;;;5033021;28;20079;-68
2022/08/20 02:51:48;;;;;;;2.97;1.67;;;22.60;75.30;;;;;;5033025;28;20522;-68
2022/08/20 02:54:14;;;;;;;3.75;1.95;;;22.60;75.00;;;;;;5032966;28;20052;-69
2022/08/20 02:56:40;;;;;;;7.25;1.92;;;22.60;75.10;;;;;;5015284;28;20021;-69
2022/08/20 02:59:06;;;;;;;2.63;2.08;;;22.60;75.00;;;;;;5032879;28;20052;-68
2022/08/20 03:01:33;;;;;;;2.35;1.80;;;22.60;75.00;;;;;;5032889;28;20024;-68
2022/08/20 03:03:59;;;;;;;2.70;1.80;;;22.60;74.70;;;;;;5031460;28;20045;-68
2022/08/20 03:06:26;;;;;;;2.65;1.35;;;22.60;74.90;;;;;;5045112;28;20029;-69
2022/08/20 03:08:51;;;;;;;1.50;1.40;;;22.60;75.00;;;;;;5041395;28;20102;-68
2022/08/20 03:11:17;;;;;;;4.07;1.70;;;22.60;75.00;;;;;;5036646;28;20068;-68
2022/08/20 03:13:44;;;;;;;2.53;1.70;;;22.60;75.00;;;;;;5032594;28;20088;-68
2022/08/20 03:16:10;;;;;;;1.55;1.30;;;22.60;75.10;;;;;;5032666;28;20108;-68
2022/08/20 03:18:40;;;;;;;3.00;1.50;;;22.60;74.80;;;;;;5032613;28;20026;-68
2022/08/20 03:21:07;;;;;;;1.27;1.10;;;22.60;74.90;;;;;;5011399;28;20060;-68
2022/08/20 03:23:34;;;;;;;1.10;1.00;;;22.50;74.50;;;;;;5021793;28;20057;-68
2022/08/20 03:26:01;;;;;;;3.13;1.27;;;22.50;74.80;;;;;;5024333;28;20026;-68
2022/08/20 03:28:27;;;;;;;1.55;1.20;;;22.60;74.70;;;;;;5012819;28;20045;-68
2022/08/20 03:30:55;;;;;;;2.08;1.40;;;22.50;74.70;;;;;;5012726;28;20456;-68
2022/08/20 03:33:21;;;;;;;1.95;1.20;;;22.50;74.00;;;;;;5012814;28;20026;-68
2022/08/20 03:35:47;;;;;;;1.67;1.40;;;22.50;74.10;;;;;;5012782;28;20069;-68
2022/08/20 03:38:16;;;;;;;2.15;1.10;;;22.50;74.40;;;;;;5031405;28;20025;-68
2022/08/20 03:40:42;;;;;;;2.17;1.33;;;22.50;74.30;;;;;;5016338;28;20029;-68
2022/08/20 03:43:09;;;;;;;1.83;1.20;;;22.50;73.90;;;;;;5012500;28;20029;-68
2022/08/20 03:45:37;;;;;;;3.25;1.10;;;22.50;73.80;;;;;;5027620;28;20057;-68
2022/08/20 03:48:06;;;;;;;2.40;1.40;;;22.40;73.10;;;;;;5012551;28;20030;-68
2022/08/20 03:50:33;;;;;;;3.38;1.17;;;22.40;72.30;;;;;;5012491;28;20041;-68
2022/08/20 03:52:59;;;;;;;2.67;1.20;;;22.40;72.30;;;;;;5029198;28;20033;-68
2022/08/20 03:55:28;;;;;;;1.45;1.05;;;22.40;72.30;;;;;;5032264;28;20095;-68
2022/08/20 03:58:01;;;;;;;3.20;1.38;;;22.30;72.80;;;;;;5011553;28;20018;-68
2022/08/20 04:00:34;;;;;;;3.28;1.25;;;22.30;73.00;;;;;;5014162;28;20471;-68
2022/08/20 04:03:00;;;;;;;2.15;0.98;;;22.20;72.40;;;;;;5016599;28;20108;-68
2022/08/20 04:05:28;;;;;;;1.50;0.93;;;22.20;72.60;;;;;;5016627;28;20156;-68
2022/08/20 04:07:55;;;;;;;2.88;1.00;;;22.20;73.00;;;;;;5034933;28;20025;-68
2022/08/20 04:10:20;;;;;;;1.80;1.17;;;22.10;73.40;;;;;;5036440;28;20100;-68
2022/08/20 04:12:46;;;;;;;5.15;1.35;;;22.10;73.50;;;;;;5035587;28;20128;-67
2022/08/20 04:15:14;;;;;;;1.40;1.30;;;22.10;73.50;;;;;;5036339;28;20018;-68
2022/08/20 04:17:42;;;;;;;1.45;0.98;;;22.00;73.40;;;;;;5036348;28;20108;-68
2022/08/20 04:20:11;;;;;;;1.85;1.10;;;22.00;73.50;;;;;;5036387;28;20051;-68
2022/08/20 04:22:37;;;;;;;1.75;1.08;;;21.90;73.40;;;;;;5036314;28;20090;-67
2022/08/20 04:25:04;;;;;;;1.63;1.20;;;22.00;73.60;;;;;;5024242;28;20030;-68
2022/08/20 04:27:31;;;;;;;1.48;1.08;;;21.90;73.90;;;;;;5016428;28;20034;-67
2022/08/20 04:29:58;;;;;;;0.98;0.98;;;21.90;74.10;;;;;;5016841;28;20029;-68
2022/08/20 04:32:25;;;;;;;1.10;1.00;;;21.90;74.20;;;;;;5016182;28;20037;-68
2022/08/20 04:34:51;;;;;;;1.42;1.15;;;21.90;74.30;;;;;;5016294;28;20444;-67
2022/08/20 04:37:23;;;;;;;1.70;1.13;;;21.90;74.30;;;;;;5029246;28;20040;-68
2022/08/20 04:42:37;;;;;;;3.97;1.95;;;21.80;74.10;;;;;;5036205;28;20087;-68
2022/08/20 04:45:05;;;;;;;2.88;1.67;;;21.80;73.80;;;;;;5035893;28;20029;-68
2022/08/20 04:47:32;;;;;;;1.50;1.27;;;21.80;73.90;;;;;;5035003;28;20104;-68
2022/08/20 04:50:01;;;;;;;2.17;1.90;;;21.80;74.30;;;;;;5035745;28;20076;-68
2022/08/20 04:52:27;;;;;;;2.60;2.15;;;21.80;74.40;;;;;;5023162;28;20576;-67
2022/08/20 04:54:56;;;;;;;2.95;2.28;;;21.70;73.90;;;;;;5015851;28;20025;-67
2022/08/20 04:57:24;;;;;;;3.15;2.40;;;21.70;74.00;;;;;;5015867;28;20104;-68
2022/08/20 04:59:51;;;;;;;3.00;2.72;;;21.70;74.00;;;;;;5015818;28;20030;-68
2022/08/20 05:02:17;;;;;;;3.63;2.53;;;21.70;73.70;;;;;;5015810;28;20434;-67
2022/08/20 05:04:44;;;;;;;2.80;2.50;;;21.70;73.80;;;;;;5016310;28;20022;-68
2022/08/20 05:07:14;;;;;;;2.45;2.25;;;21.70;73.60;;;;;;5027245;28;20390;-68
2022/08/20 05:09:41;;;;;;;2.67;2.47;;;21.70;73.80;;;;;;5035747;28;20045;-68
2022/08/20 05:12:07;;;;;;;2.90;2.10;;;21.70;73.80;;;;;;5034684;28;20451;-68
2022/08/20 05:14:32;;;;;;;3.03;2.60;;;21.70;73.60;;;;;;5035304;28;20072;-68
2022/08/20 05:17:03;;;;;;;2.83;2.55;;;21.60;73.50;;;;;;5035292;28;20021;-68
2022/08/20 05:19:30;;;;;;;2.45;2.17;;;21.60;73.60;;;;;;5025327;28;20033;-68
2022/08/20 05:21:56;;;;;;;5.07;2.35;;;21.60;73.90;;;;;;5030286;28;20103;-68
2022/08/20 05:24:23;;;;;;;3.58;3.28;;;21.60;73.90;;;;;;5034995;28;20398;-68
2022/08/20 05:26:49;;;;;;;3.15;2.88;;;21.60;73.80;;;;;;5035070;28;20034;-67
2022/08/20 05:29:15;;;;;;;3.10;2.80;;;21.60;74.00;;;;;;5035053;28;20052;-68
2022/08/20 05:31:41;;;;;;;3.75;2.60;;;21.60;73.80;;;;;;5034909;28;20032;-68
2022/08/20 05:34:10;;;;;;;6.60;3.00;;;21.60;73.60;;;;;;5034909;28;20013;-68
2022/08/20 05:36:47;;;;;;;4.65;2.38;;;21.50;73.70;;;;;;5039279;28;20513;-67
2022/08/20 05:39:14;;;;;;;2.58;2.38;;;21.60;74.10;;;;;;5053638;28;20558;-68
2022/08/20 05:41:40;;;;;;;2.90;2.47;;;21.60;74.00;;;;;;5054662;28;20036;-68
2022/08/20 05:44:09;;;;;;;3.20;2.60;;;21.60;73.70;;;;;;5054681;28;20047;-68
2022/08/20 05:46:39;;;;;;;2.72;2.20;;;21.60;73.50;;;;;;5053369;28;20063;-68
2022/08/20 05:49:08;;;;;;;2.60;2.40;;;21.60;73.20;;;;;;5036711;28;20032;-68
2022/08/20 05:51:35;;;;;;;2.53;2.20;;;21.70;73.50;;;;;;5031066;28;20017;-67
2022/08/20 05:54:02;;;;;;;2.13;1.92;;;21.70;73.10;;;;;;5034076;28;20026;-68
2022/08/20 05:56:31;;;;;;;2.85;2.60;;;21.70;73.30;;;;;;5034946;28;20388;-67
2022/08/20 05:59:03;;;;;;;2.33;2.10;;;21.70;72.60;;;;;;5033024;28;20079;-67
2022/08/20 06:01:30;;;;;;;4.38;2.30;;;21.70;72.50;;;;;;5016611;28;20441;-67
2022/08/20 06:06:40;;;;;;;;;;;21.80;72.20;;;;;;5038595;28;20075;-68
2022/08/20 06:09:05;;;;;;;1.92;1.80;;;21.90;73.00;;;;;;5054029;28;19905;-68
2022/08/20 06:11:32;;;;;;;5.80;2.20;;;21.90;72.10;;;;;;5031990;28;20026;-68
2022/08/20 06:13:58;;;;;;;2.53;2.20;;;21.90;71.70;;;;;;5034079;28;20533;-68
2022/08/20 06:16:25;;;;;;;2.58;2.38;;;22.00;71.80;;;;;;5034048;28;20427;-68
2022/08/20 06:18:51;;;;;;;5.25;2.20;;;22.00;71.30;;;;;;5043929;28;20057;-68
2022/08/20 06:21:17;;;;;;;2.58;2.38;;;22.00;71.20;;;;;;5049115;28;20140;-68
2022/08/20 06:23:42;;;;;;;2.47;1.92;;;22.00;71.20;;;;;;5032687;28;20033;-68
2022/08/20 06:26:08;;;;;;;2.20;2.10;;;22.00;70.80;;;;;;5033496;28;20029;-68
2022/08/20 06:28:34;;;;;;;2.45;2.25;;;22.00;70.40;;;;;;5032702;28;20037;-68
2022/08/20 06:31:00;;;;;;;4.18;2.13;;;22.00;70.50;;;;;;5013611;28;20079;-68
2022/08/20 06:33:26;;;;;;;2.00;1.90;;;22.00;71.10;;;;;;5013583;28;20082;-68
2022/08/20 06:35:53;;;;;;;2.55;2.10;;;22.10;71.50;;;;;;5034585;28;20413;-68
2022/08/20 06:38:19;;;;;;;2.92;2.25;;;22.10;71.00;;;;;;5051475;28;20143;-68
2022/08/20 06:40:45;;;;;;;2.58;2.00;;;22.20;71.00;;;;;;5053136;28;20449;-68
2022/08/20 06:43:11;;;;;;;2.70;2.50;;;22.10;71.40;;;;;;5053165;28;20100;-69
2022/08/20 06:45:38;;;;;;;3.47;2.60;;;22.20;71.50;;;;;;5052332;28;20057;-68
2022/08/20 06:48:12;;;;;;;2.47;2.28;;;22.20;71.20;;;;;;5053122;28;20025;-68
2022/08/20 06:50:42;;;;;;;4.22;2.70;;;22.20;71.00;;;;;;5053036;28;20041;-68
2022/08/20 06:53:10;;;;;;;3.40;2.97;;;22.30;71.30;;;;;;5053065;28;20025;-68
2022/08/20 06:55:38;;;;;;;3.03;2.72;;;22.30;70.80;;;;;;5053046;28;20439;-68
2022/08/20 06:58:09;;;;;;;3.80;3.40;;;22.30;70.20;;;;;;5051781;28;20578;-68
2022/08/20 07:00:39;;;;;;;3.38;3.08;;;22.30;70.00;;;;;;5053320;28;20020;-68
2022/08/20 07:03:05;;;;;;;4.43;3.40;;;22.30;70.60;;;;;;5048326;28;20022;-68
2022/08/20 07:05:35;;;;;;;9.25;3.17;;;22.30;70.80;;;;;;5032845;28;20393;-68
2022/08/20 07:08:00;;;;;;;4.72;3.53;;;22.30;70.90;;;;;;5028706;28;20029;-69
2022/08/20 07:10:28;;;;;;;4.15;3.63;;;22.40;71.20;;;;;;5052671;28;20033;-68
2022/08/20 07:12:54;;;;;;;5.10;4.05;;;22.50;71.50;;;;;;5052728;28;20028;-68
2022/08/20 07:15:21;;;;;;;6.15;4.82;;;22.50;70.30;;;;;;5052389;28;20017;-68
2022/08/20 07:17:58;;;;;;;5.75;3.80;;;22.60;70.50;;;;;;5052661;28;20033;-68
2022/08/20 07:20:25;;;;;;;4.78;3.97;;;22.60;70.10;;;;;;5026598;28;20021;-69
2022/08/20 07:22:51;;;;;;;7.07;4.93;;;22.70;70.00;;;;;;5032701;28;20033;-68
2022/08/20 07:25:19;;;;;;;4.80;4.30;;;22.80;69.40;;;;;;5032575;28;20034;-68
2022/08/20 07:27:46;;;;;;;5.47;4.35;;;22.80;69.00;;;;;;5032683;28;20402;-67
2022/08/20 07:33:05;;;;;;;4.47;3.90;;;23.00;71.00;;;;;;5005114;28;20174;-69
2022/08/20 07:35:30;;;;;;;6.47;4.90;;;23.10;70.40;;;;;;5055482;28;20524;-68
2022/08/20 07:37:56;;;;;;;5.25;4.25;;;23.30;68.60;;;;;;5045845;28;20029;-69
2022/08/20 07:40:26;;;;;;;4.55;4.15;;;23.30;67.50;;;;;;5038922;28;20372;-68
2022/08/20 07:42:53;;;;;;;5.90;4.20;;;23.40;67.00;;;;;;5038985;28;20553;-68
2022/08/20 07:45:19;;;;;;;7.53;4.60;;;23.40;68.20;;;;;;5039132;28;20072;-68
2022/08/20 07:47:46;;;;;;;5.28;4.57;;;23.50;66.90;;;;;;5039153;28;20025;-68
2022/08/20 07:50:18;;;;;;;5.43;3.97;;;23.50;66.20;;;;;;5039071;28;20479;-68
2022/08/20 07:52:45;;;;;;;6.97;4.18;;;23.50;66.30;;;;;;5053803;28;20031;-69
2022/08/20 07:55:14;;;;;;;4.25;3.83;;;23.50;66.40;;;;;;5045229;28;20033;-68
2022/08/20 07:57:40;;;;;;;5.43;4.82;;;23.60;67.40;;;;;;5038950;28;20028;-68
2022/08/20 08:00:08;;;;;;;9.70;4.38;;;23.60;65.00;;;;;;5038837;28;20097;-68
2022/08/20 08:02:35;;;;;;;4.15;3.63;;;23.70;65.70;;;;;;5038902;28;20075;-68
2022/08/20 08:05:01;;;;;;;4.65;3.67;;;23.70;65.30;;;;;;5037599;28;20059;-68
2022/08/20 08:07:27;;;;;;;4.60;3.75;;;23.70;66.90;;;;;;5037169;28;20502;-68
2022/08/20 08:09:55;;;;;;;3.80;3.50;;;23.80;66.80;;;;;;5038799;28;20064;-68
2022/08/20 08:12:23;;;;;;;4.22;3.50;;;23.80;65.10;;;;;;5043489;28;20605;-68
2022/08/20 08:14:49;;;;;;;6.15;3.25;;;23.90;65.60;;;;;;5038914;28;20112;-68
2022/08/20 08:17:17;;;;;;;3.40;3.10;;;24.00;66.30;;;;;;5038873;28;20032;-67
2022/08/20 08:19:47;;;;;;;3.03;2.72;;;24.10;66.50;;;;;;5038575;28;20382;-67
2022/08/20 08:22:17;;;;;;;4.40;3.00;;;24.20;65.90;;;;;;5038510;28;20041;-67
2022/08/20 08:24:45;;;;;;;5.85;2.70;;;24.20;64.30;;;;;;5038761;28;20029;-67
2022/08/20 08:27:12;;;;;;;3.85;3.00;;;24.20;63.40;;;;;;5020782;28;20025;-67
2022/08/20 08:29:38;;;;;;;3.15;2.85;;;24.30;63.50;;;;;;5039235;28;20390;-68
2022/08/20 08:32:06;;;;;;;2.78;2.55;;;24.30;62.60;;;;;;5038535;28;20030;-67
2022/08/20 08:34:35;;;;;;;2.88;2.63;;;24.20;63.70;;;;;;5038117;28;20382;-67
2022/08/20 08:37:01;;;;;;;2.90;2.63;;;24.20;64.40;;;;;;5043064;28;20437;-68
2022/08/20 08:39:29;;;;;;;3.30;2.30;;;24.20;64.40;;;;;;5041282;28;20542;-67
2022/08/20 08:41:56;;;;;;;4.50;2.92;;;24.20;65.00;;;;;;5038647;28;20075;-67
2022/08/20 08:44:28;;;;;;;3.05;2.70;;;24.20;64.90;;;;;;5038702;28;20052;-68
2022/08/20 08:47:17;;;;;;;2.90;2.60;;;24.30;64.10;;;;;;5019349;28;20033;-68
2022/08/20 08:49:46;;;;;;;3.05;2.75;;;24.40;65.20;;;;;;5035841;28;20033;-68
2022/08/20 08:52:27;;;;;;;3.55;2.50;;;24.50;63.60;;;;;;5030862;28;20047;-71
2022/08/20 08:54:56;;;;;;;3.45;3.08;;;24.60;63.90;;;;;;5032969;28;20479;-70
2022/08/20 08:57:23;;;;;;;8.20;6.70;;;24.70;65.50;;;;;;5034789;28;20035;-70
2022/08/20 08:59:56;;;;;;;6.90;3.92;;;24.80;64.30;;;;;;5034138;28;20025;-70
2022/08/20 09:02:24;;;;;;;5.38;3.88;;;24.80;64.00;;;;;;5035260;28;20053;-72
2022/08/20 09:04:54;;;;;;;3.90;3.50;;;24.90;63.50;;;;;;5030725;28;20483;-71
2022/08/20 09:07:23;;;;;;;3.92;3.20;;;24.90;61.90;;;;;;5028107;28;20029;-74
2022/08/20 09:09:50;;;;;;;3.30;3.00;;;24.90;59.80;;;;;;5034573;28;20132;-70
2022/08/20 09:12:21;;;;;;;3.50;3.20;;;24.90;61.80;;;;;;5032917;28;20030;-69
2022/08/20 09:14:49;;;;;;;3.15;2.88;;;25.00;62.50;;;;;;5032855;28;20048;-71
2022/08/20 09:17:16;;;;;;;3.47;2.80;;;25.00;64.30;;;;;;5029937;28;20033;-70
2022/08/20 09:19:42;;;;;;;3.20;2.60;;;25.10;63.70;;;;;;5031822;28;20476;-70
2022/08/20 09:22:14;;;;;;;2.63;2.33;;;25.20;63.00;;;;;;5038358;28;20061;-72
2022/08/20 09:24:40;;;;;;;2.92;2.72;;;25.40;61.40;;;;;;5036380;28;20053;-69
2022/08/20 09:27:07;;;;;;;2.55;2.35;;;25.50;60.80;;;;;;5034612;28;20035;-70
2022/08/20 09:29:33;;;;;;;2.63;2.40;;;25.60;61.30;;;;;;5034520;28;20032;-71
2022/08/20 09:32:07;;;;;;;2.83;2.53;;;25.70;60.60;;;;;;5034176;28;20039;-70
2022/08/20 09:34:44;;;;;;;4.10;2.30;;;25.70;59.90;;;;;;5035462;28;20022;-73
2022/08/20 09:37:12;;;;;;;2.10;1.90;;;25.90;60.10;;;;;;5039458;28;20025;-71
2022/08/20 09:39:39;;;;;;;2.28;2.08;;;25.90;59.90;;;;;;5053895;28;20040;-70
2022/08/20 09:42:15;;;;;;;1.90;1.65;;;26.00;60.20;;;;;;5028802;28;20099;-70
2022/08/20 09:44:42;;;;;;;2.30;2.10;;;26.00;60.00;;;;;;5017137;28;20384;-71
2022/08/20 09:47:08;;;;;;;2.25;1.95;;;26.00;59.00;;;;;;5034404;28;20025;-71
2022/08/20 09:49:36;;;;;;;2.28;2.08;;;26.00;58.90;;;;;;5034591;28;20034;-70
2022/08/20 09:52:05;;;;;;;2.00;1.80;;;26.00;59.60;;;;;;5034497;28;20441;-71
2022/08/20 09:54:32;;;;;;;3.60;2.65;;;26.00;60.10;;;;;;5034548;28;20013;-70
2022/08/20 09:57:01;;;;;;;2.83;2.55;;;26.00;59.30;;;;;;5034498;28;20053;-70
2022/08/20 09:59:28;;;;;;;2.88;2.58;;;25.90;58.40;;;;;;5034312;28;20049;-71
2022/08/20 10:01:54;;;;;;;2.28;2.08;;;25.80;58.90;;;;;;5034317;28;20026;-70
2022/08/20 10:04:20;;;;;;;2.25;1.83;;;25.70;58.00;;;;;;5034325;28;20040;-70
2022/08/20 10:06:46;;;;;;;1.88;1.77;;;25.60;59.30;;;;;;5036171;28;20414;-69
2022/08/20 10:09:12;;;;;;;2.22;2.00;;;25.50;59.50;;;;;;5036303;28;20374;-70
2022/08/20 10:11:37;;;;;;;2.47;2.28;;;25.40;59.00;;;;;;5054018;28;20109;-70
2022/08/20 10:14:04;;;;;;;2.53;2.33;;;25.30;58.90;;;;;;5054125;28;20355;-70
2022/08/20 10:16:30;;;;;;;3.05;2.72;;;25.20;58.70;;;;;;5043061;28;20021;-70
2022/08/20 10:18:56;;;;;;;5.72;3.00;;;25.00;58.60;;;;;;5034075;28;20033;-70
2022/08/20 10:21:22;;;;;;;2.80;2.60;;;25.00;58.60;;;;;;5033859;28;20050;-70
2022/08/20 10:23:48;;;;;;;4.50;2.90;;;24.90;59.60;;;;;;5032833;28;20041;-69
2022/08/20 10:26:15;;;;;;;4.13;3.33;;;24.80;58.20;;;;;;5033878;28;20025;-70
2022/08/20 10:28:42;;;;;;;4.07;2.97;;;24.60;59.40;;;;;;5033943;28;20539;-69
2022/08/20 10:31:11;;;;;;;3.03;2.72;;;24.60;59.80;;;;;;5033786;28;20040;-69
2022/08/20 10:33:38;;;;;;;4.45;3.45;;;24.60;59.80;;;;;;5033812;28;20021;-71
2022/08/20 10:36:14;;;;;;;14.25;3.83;;;24.60;60.50;;;;;;5033684;28;20065;-69
2022/08/20 10:38:41;;;;;;;5.95;3.78;;;24.70;61.40;;;;;;5050845;28;20048;-70
2022/08/20 10:41:07;;;;;;;5.70;3.42;;;24.80;61.60;;;;;;5035708;28;20079;-71
2022/08/20 10:43:33;;;;;;;4.30;3.38;;;25.00;62.90;;;;;;5053446;28;20417;-70
2022/08/20 10:45:59;;;;;;;4.82;4.15;;;25.20;61.50;;;;;;5035566;28;20033;-70
2022/08/20 10:48:25;;;;;;;4.70;4.20;;;25.40;60.90;;;;;;5053377;28;20029;-70
2022/08/20 10:50:51;;;;;;;4.90;4.40;;;25.70;61.80;;;;;;5053234;28;20082;-71
2022/08/20 10:53:17;;;;;;;5.35;3.55;;;25.80;59.60;;;;;;5053367;28;20021;-70
2022/08/20 10:55:43;;;;;;;5.20;3.58;;;26.00;59.10;;;;;;5053277;28;20032;-71
2022/08/20 10:58:09;;;;;;;5.20;3.95;;;26.20;60.10;;;;;;5052023;28;20021;-70
2022/08/20 11:00:35;;;;;;;4.95;4.55;;;26.40;60.00;;;;;;5053257;28;20074;-69
2022/08/20 11:03:01;;;;;;;5.22;3.97;;;26.50;59.20;;;;;;5053240;28;20480;-70
2022/08/20 11:05:27;;;;;;;4.32;3.92;;;26.60;59.30;;;;;;5053224;28;20097;-71
2022/08/20 11:07:54;;;;;;;4.47;3.72;;;26.70;59.20;;;;;;5041908;28;20116;-69
2022/08/20 11:10:20;;;;;;;5.15;4.20;;;26.70;58.00;;;;;;5031377;28;20383;-69
2022/08/20 11:12:46;;;;;;;3.70;3.40;;;26.70;58.10;;;;;;5015314;28;20033;-69
2022/08/20 11:15:14;;;;;;;4.65;4.10;;;26.80;58.80;;;;;;5032977;28;20502;-69
2022/08/20 11:17:42;;;;;;;4.28;3.88;;;26.80;58.90;;;;;;5033166;28;20375;-68
2022/08/20 11:20:09;;;;;;;4.15;3.75;;;26.80;58.60;;;;;;5033022;28;20071;-68
2022/08/20 11:22:35;;;;;;;5.25;3.90;;;26.90;58.90;;;;;;5033106;28;20411;-68
2022/08/20 11:25:03;;;;;;;5.00;4.28;;;27.00;57.70;;;;;;5015229;28;20033;-69
2022/08/20 11:27:43;;;;;;;4.03;3.35;;;27.10;58.30;;;;;;5033007;28;20387;-68
2022/08/20 11:30:11;;;;;;;5.15;3.45;;;27.20;58.00;;;;;;5032987;28;20033;-70
2022/08/20 11:32:37;;;;;;;5.72;4.32;;;27.30;57.80;;;;;;5032777;28;20407;-68
2022/08/20 11:35:04;;;;;;;4.45;3.45;;;27.30;56.60;;;;;;5031550;28;20026;-69
2022/08/20 11:37:31;;;;;;;5.28;3.50;;;27.30;56.10;;;;;;5039615;28;20020;-68
2022/08/20 11:39:57;;;;;;;4.95;3.70;;;27.30;57.10;;;;;;5051204;28;20421;-70
2022/08/20 11:42:23;;;;;;;4.18;3.65;;;27.20;57.00;;;;;;5052750;28;20059;-70
2022/08/20 11:44:49;;;;;;;3.88;3.55;;;27.30;57.60;;;;;;5052640;28;20410;-68
2022/08/20 11:47:24;;;;;;;3.63;3.30;;;27.30;57.80;;;;;;5052674;28;20029;-69
2022/08/20 11:50:17;;;;;;;4.90;3.95;;;27.30;57.20;;;;;;5052618;28;20029;-70
2022/08/20 11:52:43;;;;;;;4.85;3.35;;;27.40;57.10;;;;;;5050111;28;20132;-69
2022/08/20 11:55:12;;;;;;;4.80;3.50;;;27.30;56.40;;;;;;5052671;28;20097;-70
2022/08/20 11:57:41;;;;;;;4.03;3.60;;;27.30;56.80;;;;;;5052581;28;20090;-70
2022/08/20 12:00:12;;;;;;;5.28;3.72;;;27.30;57.10;;;;;;5052561;28;20067;-68
2022/08/20 12:02:39;;;;;;;4.18;3.17;;;27.20;56.00;;;;;;5052554;28;20029;-70
2022/08/20 12:05:05;;;;;;;3.50;2.92;;;27.10;56.50;;;;;;5052535;28;20397;-70
2022/08/20 12:07:31;;;;;;;3.85;3.47;;;27.00;56.90;;;;;;5045019;28;20025;-70
2022/08/20 12:09:57;;;;;;;4.43;4.03;;;26.90;56.70;;;;;;5031315;28;20033;-69
2022/08/20 12:12:23;;;;;;;5.03;4.25;;;26.80;56.20;;;;;;5032364;28;20109;-70
2022/08/20 12:14:51;;;;;;;5.63;4.03;;;26.70;56.70;;;;;;5032608;28;20431;-71
2022/08/20 12:17:22;;;;;;;4.43;4.00;;;26.60;57.70;;;;;;5032630;28;20364;-70
2022/08/20 12:19:50;;;;;;;3.80;3.40;;;26.70;58.90;;;;;;5033440;28;20433;-71
2022/08/20 12:22:17;;;;;;;5.10;3.95;;;26.70;59.20;;;;;;5033303;28;20486;-70
2022/08/20 12:24:43;;;;;;;5.90;4.70;;;26.80;59.80;;;;;;5034942;28;20056;-70
2022/08/20 12:27:12;;;;;;;5.72;4.00;;;27.00;59.20;;;;;;5036434;28;20475;-70
2022/08/20 12:29:39;;;;;;;6.38;4.15;;;27.10;58.40;;;;;;5036248;28;20025;-71
2022/08/20 12:32:06;;;;;;;10.43;5.18;;;27.30;58.00;;;;;;5036058;28;20546;-72
2022/08/20 12:34:36;;;;;;;9.13;3.85;;;27.40;57.20;;;;;;5035994;28;20025;-71
2022/08/20 12:37:17;;;;;;;4.47;3.70;;;27.60;58.90;;;;;;5036883;28;20021;-72
2022/08/20 12:39:46;;;;;;;4.13;3.20;;;27.80;56.30;;;;;;5035957;28;20029;-72
2022/08/20 12:42:13;;;;;;;3.90;3.50;;;28.00;56.60;;;;;;5018266;28;20438;-71
2022/08/20 12:44:39;;;;;;;2.97;2.67;;;28.20;55.30;;;;;;5035807;28;20025;-71
2022/08/20 12:47:12;;;;;;;3.97;2.40;;;28.30;54.10;;;;;;5035786;28;20041;-72
2022/08/20 12:49:40;;;;;;;2.87;2.53;;;28.40;54.10;;;;;;5035824;28;20048;-71
2022/08/20 12:52:07;;;;;;;6.68;2.80;;;28.50;52.80;;;;;;5035692;28;20504;-72
2022/08/20 12:54:34;;;;;;;4.00;2.60;;;28.60;53.60;;;;;;5035744;28;20494;-72
2022/08/20 12:57:00;;;;;;;2.88;2.58;;;28.70;53.70;;;;;;5035679;28;20017;-72
2022/08/20 12:59:26;;;;;;;5.35;4.05;;;28.80;54.80;;;;;;5036233;28;20391;-72
2022/08/20 13:01:53;;;;;;;3.08;2.78;;;28.90;52.80;;;;;;5035559;28;20040;-72
2022/08/20 13:04:19;;;;;;;2.75;2.55;;;29.00;52.30;;;;;;5035456;28;20414;-71